Terminal Aerodrome Forecast
Issued by NWS Billings, MT

Home | Current Version | Previous Version | Text Only | Print | Product List | Glossary On
Versions: 1 2 3 4 5 6 7 8 9 10 11 12 13
000
FTUS45 KBYZ 192008 AAA
TAFBIL
TAF AMD
KBIL 192008Z 1920/2018 28010KT P6SM BKN100
     FM200100 28010KT P6SM VCSH SCT050 OVC090
     FM200700 27010KT 5SM -SHRASN SCT020 OVC040
     FM201000 27010KT 3SM -RASN BR OVC020
     FM201600 VRB05KT 6SM -RASN BR SCT020 OVC060=

USA.gov is the U.S. government's official web portal to all federal, state and local government web resources and services.